sensor_id;sensor_type;location;lat;lon;timestamp;P1;durP1;ratioP1;P2;durP2;ratioP2
73557;SDS011;61829;53.286;10.434;2023-04-03T00:01:18;5.75;;;1.40;;
73557;SDS011;61829;53.286;10.434;2023-04-03T00:03:46;6.20;;;1.40;;
73557;SDS011;61829;53.286;10.434;2023-04-03T00:06:12;5.32;;;1.40;;
73557;SDS011;61829;53.286;10.434;2023-04-03T00:14:44;4.10;;;1.25;;
73557;SDS011;61829;53.286;10.434;2023-04-03T00:17:10;6.35;;;1.20;;
73557;SDS011;61829;53.286;10.434;2023-04-03T00:19:35;3.55;;;1.33;;
73557;SDS011;61829;53.286;10.434;2023-04-03T00:22:01;3.75;;;1.35;;
73557;SDS011;61829;53.286;10.434;2023-04-03T00:24:27;5.65;;;1.20;;
73557;SDS011;61829;53.286;10.434;2023-04-03T00:26:53;2.72;;;1.40;;
73557;SDS011;61829;53.286;10.434;2023-04-03T00:29:19;3.10;;;1.23;;
73557;SDS011;61829;53.286;10.434;2023-04-03T00:31:45;2.38;;;1.33;;
73557;SDS011;61829;53.286;10.434;2023-04-03T00:34:10;4.32;;;1.05;;
73557;SDS011;61829;53.286;10.434;2023-04-03T00:36:36;3.47;;;1.10;;
73557;SDS011;61829;53.286;10.434;2023-04-03T00:39:03;5.50;;;1.58;;
73557;SDS011;61829;53.286;10.434;2023-04-03T00:41:30;5.05;;;1.27;;
73557;SDS011;61829;53.286;10.434;2023-04-03T00:43:55;6.25;;;1.58;;
73557;SDS011;61829;53.286;10.434;2023-04-03T00:46:21;3.90;;;1.15;;
73557;SDS011;61829;53.286;10.434;2023-04-03T00:48:47;3.75;;;1.25;;
73557;SDS011;61829;53.286;10.434;2023-04-03T00:51:16;5.65;;;1.30;;
73557;SDS011;61829;53.286;10.434;2023-04-03T00:53:59;1.92;;;1.00;;
73557;SDS011;61829;53.286;10.434;2023-04-03T00:56:28;2.72;;;1.15;;
73557;SDS011;61829;53.286;10.434;2023-04-03T01:02:08;4.88;;;1.40;;
73557;SDS011;61829;53.286;10.434;2023-04-03T01:04:34;4.50;;;1.33;;
73557;SDS011;61829;53.286;10.434;2023-04-03T01:07:07;3.53;;;1.30;;
73557;SDS011;61829;53.286;10.434;2023-04-03T01:09:35;6.35;;;1.58;;
73557;SDS011;61829;53.286;10.434;2023-04-03T01:12:12;4.28;;;1.58;;
73557;SDS011;61829;53.286;10.434;2023-04-03T01:14:58;5.43;;;1.13;;
73557;SDS011;61829;53.286;10.434;2023-04-03T01:22:44;5.28;;;1.30;;
73557;SDS011;61829;53.286;10.434;2023-04-03T01:25:12;4.00;;;1.10;;
73557;SDS011;61829;53.286;10.434;2023-04-03T01:27:39;4.57;;;1.20;;
73557;SDS011;61829;53.286;10.434;2023-04-03T01:30:05;3.20;;;1.33;;
73557;SDS011;61829;53.286;10.434;2023-04-03T01:32:32;3.85;;;1.20;;
73557;SDS011;61829;53.286;10.434;2023-04-03T01:34:57;3.42;;;1.30;;
73557;SDS011;61829;53.286;10.434;2023-04-03T01:37:24;5.50;;;1.95;;
73557;SDS011;61829;53.286;10.434;2023-04-03T01:39:49;3.90;;;1.30;;
73557;SDS011;61829;53.286;10.434;2023-04-03T01:42:15;3.60;;;1.45;;
73557;SDS011;61829;53.286;10.434;2023-04-03T01:44:41;5.18;;;1.45;;
73557;SDS011;61829;53.286;10.434;2023-04-03T01:47:07;3.85;;;1.90;;
73557;SDS011;61829;53.286;10.434;2023-04-03T01:49:33;6.47;;;1.60;;
73557;SDS011;61829;53.286;10.434;2023-04-03T01:51:58;4.13;;;1.38;;
73557;SDS011;61829;53.286;10.434;2023-04-03T01:54:25;4.25;;;1.48;;
73557;SDS011;61829;53.286;10.434;2023-04-03T01:56:51;5.32;;;1.10;;
73557;SDS011;61829;53.286;10.434;2023-04-03T01:59:17;4.38;;;1.50;;
73557;SDS011;61829;53.286;10.434;2023-04-03T02:01:44;3.45;;;1.40;;
73557;SDS011;61829;53.286;10.434;2023-04-03T02:04:11;5.45;;;1.45;;
73557;SDS011;61829;53.286;10.434;2023-04-03T02:06:38;4.18;;;1.73;;
73557;SDS011;61829;53.286;10.434;2023-04-03T02:09:03;7.82;;;1.55;;
73557;SDS011;61829;53.286;10.434;2023-04-03T02:11:30;5.07;;;1.42;;
73557;SDS011;61829;53.286;10.434;2023-04-03T02:13:56;3.75;;;1.60;;
73557;SDS011;61829;53.286;10.434;2023-04-03T02:16:22;5.72;;;1.40;;
73557;SDS011;61829;53.286;10.434;2023-04-03T02:18:47;4.25;;;1.20;;
73557;SDS011;61829;53.286;10.434;2023-04-03T02:21:13;3.63;;;1.25;;
73557;SDS011;61829;53.286;10.434;2023-04-03T02:23:39;5.13;;;1.50;;
73557;SDS011;61829;53.286;10.434;2023-04-03T02:26:06;5.40;;;2.03;;
73557;SDS011;61829;53.286;10.434;2023-04-03T02:28:34;4.40;;;1.30;;
73557;SDS011;61829;53.286;10.434;2023-04-03T02:31:00;2.95;;;1.20;;
73557;SDS011;61829;53.286;10.434;2023-04-03T02:33:26;2.38;;;1.15;;
73557;SDS011;61829;53.286;10.434;2023-04-03T02:35:52;7.43;;;1.40;;
73557;SDS011;61829;53.286;10.434;2023-04-03T02:38:21;5.60;;;1.80;;
73557;SDS011;61829;53.286;10.434;2023-04-03T02:40:48;4.70;;;1.52;;
73557;SDS011;61829;53.286;10.434;2023-04-03T02:43:14;2.63;;;1.20;;
73557;SDS011;61829;53.286;10.434;2023-04-03T02:45:40;5.93;;;1.42;;
73557;SDS011;61829;53.286;10.434;2023-04-03T02:48:05;5.82;;;1.70;;
73557;SDS011;61829;53.286;10.434;2023-04-03T02:50:32;6.10;;;1.50;;
73557;SDS011;61829;53.286;10.434;2023-04-03T02:52:57;5.93;;;1.90;;
73557;SDS011;61829;53.286;10.434;2023-04-03T02:55:23;2.38;;;1.25;;
73557;SDS011;61829;53.286;10.434;2023-04-03T02:57:49;5.38;;;1.55;;
73557;SDS011;61829;53.286;10.434;2023-04-03T03:00:15;4.70;;;1.80;;
73557;SDS011;61829;53.286;10.434;2023-04-03T03:02:41;4.82;;;1.63;;
73557;SDS011;61829;53.286;10.434;2023-04-03T03:05:08;5.10;;;1.70;;
73557;SDS011;61829;53.286;10.434;2023-04-03T03:07:34;4.68;;;1.50;;
73557;SDS011;61829;53.286;10.434;2023-04-03T03:09:59;6.45;;;2.45;;
73557;SDS011;61829;53.286;10.434;2023-04-03T03:12:25;7.75;;;2.33;;
73557;SDS011;61829;53.286;10.434;2023-04-03T03:14:51;9.45;;;2.28;;
73557;SDS011;61829;53.286;10.434;2023-04-03T03:17:17;5.57;;;2.42;;
73557;SDS011;61829;53.286;10.434;2023-04-03T03:19:43;6.65;;;2.10;;
73557;SDS011;61829;53.286;10.434;2023-04-03T03:22:11;2.38;;;1.70;;
73557;SDS011;61829;53.286;10.434;2023-04-03T03:24:37;6.65;;;1.98;;
73557;SDS011;61829;53.286;10.434;2023-04-03T03:27:02;6.75;;;1.90;;
73557;SDS011;61829;53.286;10.434;2023-04-03T03:29:31;6.60;;;2.03;;
73557;SDS011;61829;53.286;10.434;2023-04-03T03:31:56;5.70;;;1.98;;
73557;SDS011;61829;53.286;10.434;2023-04-03T03:34:23;6.75;;;2.05;;
73557;SDS011;61829;53.286;10.434;2023-04-03T03:36:48;4.00;;;1.88;;
73557;SDS011;61829;53.286;10.434;2023-04-03T03:39:14;5.03;;;1.52;;
73557;SDS011;61829;53.286;10.434;2023-04-03T03:41:40;4.25;;;1.98;;
73557;SDS011;61829;53.286;10.434;2023-04-03T03:44:06;5.72;;;1.88;;
73557;SDS011;61829;53.286;10.434;2023-04-03T03:46:32;6.13;;;1.83;;
73557;SDS011;61829;53.286;10.434;2023-04-03T03:48:58;5.07;;;2.25;;
73557;SDS011;61829;53.286;10.434;2023-04-03T03:51:24;7.80;;;2.25;;
73557;SDS011;61829;53.286;10.434;2023-04-03T03:53:50;3.58;;;1.55;;
73557;SDS011;61829;53.286;10.434;2023-04-03T03:56:16;4.18;;;1.65;;
73557;SDS011;61829;53.286;10.434;2023-04-03T03:58:42;4.13;;;1.55;;
73557;SDS011;61829;53.286;10.434;2023-04-03T04:01:07;4.15;;;1.85;;
73557;SDS011;61829;53.286;10.434;2023-04-03T04:03:33;3.13;;;1.38;;
73557;SDS011;61829;53.286;10.434;2023-04-03T04:05:59;4.63;;;1.88;;
73557;SDS011;61829;53.286;10.434;2023-04-03T04:11:30;3.75;;;1.63;;
73557;SDS011;61829;53.286;10.434;2023-04-03T04:13:58;3.33;;;1.52;;
73557;SDS011;61829;53.286;10.434;2023-04-03T04:16:23;4.93;;;1.45;;
73557;SDS011;61829;53.286;10.434;2023-04-03T04:18:49;3.80;;;1.77;;
73557;SDS011;61829;53.286;10.434;2023-04-03T04:21:16;6.18;;;1.85;;
73557;SDS011;61829;53.286;10.434;2023-04-03T04:23:42;5.07;;;1.65;;
73557;SDS011;61829;53.286;10.434;2023-04-03T04:26:08;4.60;;;1.73;;
73557;SDS011;61829;53.286;10.434;2023-04-03T04:28:34;4.18;;;1.70;;
73557;SDS011;61829;53.286;10.434;2023-04-03T04:31:00;6.00;;;2.30;;
73557;SDS011;61829;53.286;10.434;2023-04-03T04:33:26;16.88;;;5.75;;
73557;SDS011;61829;53.286;10.434;2023-04-03T04:35:51;10.43;;;3.35;;
73557;SDS011;61829;53.286;10.434;2023-04-03T04:38:17;7.65;;;2.30;;
73557;SDS011;61829;53.286;10.434;2023-04-03T04:40:43;6.05;;;2.33;;
73557;SDS011;61829;53.286;10.434;2023-04-03T04:43:09;3.67;;;1.58;;
73557;SDS011;61829;53.286;10.434;2023-04-03T04:45:36;5.95;;;2.28;;
73557;SDS011;61829;53.286;10.434;2023-04-03T04:48:02;3.83;;;1.70;;
73557;SDS011;61829;53.286;10.434;2023-04-03T04:50:27;7.95;;;2.28;;
73557;SDS011;61829;53.286;10.434;2023-04-03T04:52:53;4.45;;;2.22;;
73557;SDS011;61829;53.286;10.434;2023-04-03T04:55:19;8.20;;;2.80;;
73557;SDS011;61829;53.286;10.434;2023-04-03T04:57:46;7.55;;;2.33;;
73557;SDS011;61829;53.286;10.434;2023-04-03T05:00:12;3.67;;;2.25;;
73557;SDS011;61829;53.286;10.434;2023-04-03T05:02:38;7.45;;;3.10;;
73557;SDS011;61829;53.286;10.434;2023-04-03T05:05:04;25.95;;;7.43;;
73557;SDS011;61829;53.286;10.434;2023-04-03T05:07:31;25.30;;;8.43;;
73557;SDS011;61829;53.286;10.434;2023-04-03T05:09:56;9.32;;;3.67;;
73557;SDS011;61829;53.286;10.434;2023-04-03T05:12:22;12.20;;;4.72;;
73557;SDS011;61829;53.286;10.434;2023-04-03T05:14:48;8.35;;;3.20;;
73557;SDS011;61829;53.286;10.434;2023-04-03T05:17:18;11.32;;;3.67;;
73557;SDS011;61829;53.286;10.434;2023-04-03T05:19:43;7.45;;;2.50;;
73557;SDS011;61829;53.286;10.434;2023-04-03T05:22:09;12.52;;;3.08;;
73557;SDS011;61829;53.286;10.434;2023-04-03T05:24:35;11.20;;;3.65;;
73557;SDS011;61829;53.286;10.434;2023-04-03T05:27:01;5.22;;;2.72;;
73557;SDS011;61829;53.286;10.434;2023-04-03T05:29:27;7.30;;;2.63;;
73557;SDS011;61829;53.286;10.434;2023-04-03T05:31:53;7.05;;;2.85;;
73557;SDS011;61829;53.286;10.434;2023-04-03T05:34:18;5.45;;;2.40;;
73557;SDS011;61829;53.286;10.434;2023-04-03T05:36:45;12.13;;;5.82;;
73557;SDS011;61829;53.286;10.434;2023-04-03T05:39:10;5.85;;;3.17;;
73557;SDS011;61829;53.286;10.434;2023-04-03T05:41:36;5.85;;;2.55;;
73557;SDS011;61829;53.286;10.434;2023-04-03T05:44:02;6.47;;;2.58;;
73557;SDS011;61829;53.286;10.434;2023-04-03T05:46:28;11.98;;;3.75;;
73557;SDS011;61829;53.286;10.434;2023-04-03T05:48:58;9.70;;;3.35;;
73557;SDS011;61829;53.286;10.434;2023-04-03T05:51:25;6.80;;;2.60;;
73557;SDS011;61829;53.286;10.434;2023-04-03T05:53:58;10.38;;;4.22;;
73557;SDS011;61829;53.286;10.434;2023-04-03T05:56:31;32.53;;;15.05;;
73557;SDS011;61829;53.286;10.434;2023-04-03T05:58:57;9.43;;;6.40;;
73557;SDS011;61829;53.286;10.434;2023-04-03T06:01:24;8.15;;;4.28;;
73557;SDS011;61829;53.286;10.434;2023-04-03T06:03:50;7.05;;;3.10;;
73557;SDS011;61829;53.286;10.434;2023-04-03T06:06:16;13.13;;;4.32;;
73557;SDS011;61829;53.286;10.434;2023-04-03T06:08:41;14.40;;;5.13;;
73557;SDS011;61829;53.286;10.434;2023-04-03T06:13:34;19.88;;;6.80;;
73557;SDS011;61829;53.286;10.434;2023-04-03T06:16:00;20.98;;;5.35;;
73557;SDS011;61829;53.286;10.434;2023-04-03T06:18:27;10.63;;;4.07;;
73557;SDS011;61829;53.286;10.434;2023-04-03T06:20:53;5.57;;;2.00;;
73557;SDS011;61829;53.286;10.434;2023-04-03T06:23:21;5.43;;;1.90;;
73557;SDS011;61829;53.286;10.434;2023-04-03T06:25:48;5.18;;;1.70;;
73557;SDS011;61829;53.286;10.434;2023-04-03T06:28:14;3.63;;;1.60;;
73557;SDS011;61829;53.286;10.434;2023-04-03T06:30:40;4.15;;;1.75;;
73557;SDS011;61829;53.286;10.434;2023-04-03T06:33:05;5.45;;;1.75;;
73557;SDS011;61829;53.286;10.434;2023-04-03T06:35:32;5.53;;;1.25;;
73557;SDS011;61829;53.286;10.434;2023-04-03T06:38:00;4.28;;;1.40;;
73557;SDS011;61829;53.286;10.434;2023-04-03T06:40:30;4.07;;;1.67;;
73557;SDS011;61829;53.286;10.434;2023-04-03T06:42:56;4.28;;;1.45;;
73557;SDS011;61829;53.286;10.434;2023-04-03T06:45:22;2.90;;;1.35;;
73557;SDS011;61829;53.286;10.434;2023-04-03T06:47:47;3.67;;;1.40;;
73557;SDS011;61829;53.286;10.434;2023-04-03T06:50:16;3.63;;;1.45;;
73557;SDS011;61829;53.286;10.434;2023-04-03T06:52:42;4.88;;;1.58;;
73557;SDS011;61829;53.286;10.434;2023-04-03T06:55:08;4.85;;;1.75;;
73557;SDS011;61829;53.286;10.434;2023-04-03T06:57:35;4.63;;;1.60;;
73557;SDS011;61829;53.286;10.434;2023-04-03T07:00:02;6.68;;;2.70;;
73557;SDS011;61829;53.286;10.434;2023-04-03T07:02:29;4.75;;;1.70;;
73557;SDS011;61829;53.286;10.434;2023-04-03T07:04:55;8.30;;;1.63;;
73557;SDS011;61829;53.286;10.434;2023-04-03T07:07:21;4.88;;;1.48;;
73557;SDS011;61829;53.286;10.434;2023-04-03T07:09:47;4.50;;;1.25;;
73557;SDS011;61829;53.286;10.434;2023-04-03T07:12:13;3.85;;;1.30;;
73557;SDS011;61829;53.286;10.434;2023-04-03T07:14:39;4.35;;;1.50;;
73557;SDS011;61829;53.286;10.434;2023-04-03T07:17:05;6.97;;;1.30;;
73557;SDS011;61829;53.286;10.434;2023-04-03T07:19:32;2.97;;;1.40;;
73557;SDS011;61829;53.286;10.434;2023-04-03T07:21:58;2.78;;;1.20;;
73557;SDS011;61829;53.286;10.434;2023-04-03T07:24:23;3.20;;;1.40;;
73557;SDS011;61829;53.286;10.434;2023-04-03T07:26:50;2.08;;;0.98;;
73557;SDS011;61829;53.286;10.434;2023-04-03T07:29:17;2.80;;;1.20;;
73557;SDS011;61829;53.286;10.434;2023-04-03T07:31:44;3.05;;;1.42;;
73557;SDS011;61829;53.286;10.434;2023-04-03T07:34:10;3.55;;;1.58;;
73557;SDS011;61829;53.286;10.434;2023-04-03T07:36:37;3.65;;;1.30;;
73557;SDS011;61829;53.286;10.434;2023-04-03T07:39:03;4.35;;;1.60;;
73557;SDS011;61829;53.286;10.434;2023-04-03T07:41:29;3.08;;;1.58;;
73557;SDS011;61829;53.286;10.434;2023-04-03T07:44:02;6.50;;;1.90;;
73557;SDS011;61829;53.286;10.434;2023-04-03T07:46:28;1.63;;;1.48;;
73557;SDS011;61829;53.286;10.434;2023-04-03T07:48:54;3.35;;;1.00;;
73557;SDS011;61829;53.286;10.434;2023-04-03T07:51:20;7.07;;;1.45;;
73557;SDS011;61829;53.286;10.434;2023-04-03T07:53:47;2.95;;;0.95;;
73557;SDS011;61829;53.286;10.434;2023-04-03T07:56:13;5.32;;;1.10;;
73557;SDS011;61829;53.286;10.434;2023-04-03T07:58:41;3.65;;;1.20;;
73557;SDS011;61829;53.286;10.434;2023-04-03T08:01:07;2.38;;;1.05;;
73557;SDS011;61829;53.286;10.434;2023-04-03T08:03:34;2.97;;;1.02;;
73557;SDS011;61829;53.286;10.434;2023-04-03T08:06:04;2.33;;;1.00;;
73557;SDS011;61829;53.286;10.434;2023-04-03T08:08:33;4.22;;;1.10;;
73557;SDS011;61829;53.286;10.434;2023-04-03T08:11:00;4.15;;;1.30;;
73557;SDS011;61829;53.286;10.434;2023-04-03T08:13:29;5.05;;;1.17;;
73557;SDS011;61829;53.286;10.434;2023-04-03T08:15:56;2.38;;;1.13;;
73557;SDS011;61829;53.286;10.434;2023-04-03T08:18:23;5.47;;;1.10;;
73557;SDS011;61829;53.286;10.434;2023-04-03T08:20:51;6.15;;;1.10;;
73557;SDS011;61829;53.286;10.434;2023-04-03T08:23:18;3.63;;;1.05;;
73557;SDS011;61829;53.286;10.434;2023-04-03T08:25:44;5.35;;;0.90;;
73557;SDS011;61829;53.286;10.434;2023-04-03T08:28:12;4.70;;;1.10;;
73557;SDS011;61829;53.286;10.434;2023-04-03T08:30:40;2.08;;;0.80;;
73557;SDS011;61829;53.286;10.434;2023-04-03T08:33:08;2.80;;;0.75;;
73557;SDS011;61829;53.286;10.434;2023-04-03T08:35:54;4.97;;;1.23;;
73557;SDS011;61829;53.286;10.434;2023-04-03T08:38:21;3.30;;;1.10;;
73557;SDS011;61829;53.286;10.434;2023-04-03T08:40:59;2.92;;;0.85;;
73557;SDS011;61829;53.286;10.434;2023-04-03T08:46:24;2.03;;;0.70;;
73557;SDS011;61829;53.286;10.434;2023-04-03T08:49:04;2.03;;;0.90;;
73557;SDS011;61829;53.286;10.434;2023-04-03T08:51:41;3.58;;;0.90;;
73557;SDS011;61829;53.286;10.434;2023-04-03T08:54:30;4.10;;;1.00;;
73557;SDS011;61829;53.286;10.434;2023-04-03T08:56:58;2.63;;;1.00;;
73557;SDS011;61829;53.286;10.434;2023-04-03T08:59:31;0.82;;;0.60;;
73557;SDS011;61829;53.286;10.434;2023-04-03T09:02:04;1.17;;;0.63;;
73557;SDS011;61829;53.286;10.434;2023-04-03T09:04:54;2.22;;;0.63;;
73557;SDS011;61829;53.286;10.434;2023-04-03T09:07:31;2.30;;;1.10;;
73557;SDS011;61829;53.286;10.434;2023-04-03T09:10:06;2.92;;;1.20;;
73557;SDS011;61829;53.286;10.434;2023-04-03T09:12:42;3.92;;;0.80;;
73557;SDS011;61829;53.286;10.434;2023-04-03T09:15:23;2.05;;;0.70;;
73557;SDS011;61829;53.286;10.434;2023-04-03T09:18:13;1.52;;;0.80;;
73557;SDS011;61829;53.286;10.434;2023-04-03T09:21:03;2.95;;;0.90;;
73557;SDS011;61829;53.286;10.434;2023-04-03T09:23:52;1.98;;;0.60;;
73557;SDS011;61829;53.286;10.434;2023-04-03T09:26:23;2.10;;;0.93;;
73557;SDS011;61829;53.286;10.434;2023-04-03T09:28:51;2.58;;;0.98;;
73557;SDS011;61829;53.286;10.434;2023-04-03T09:31:21;4.70;;;1.00;;
73557;SDS011;61829;53.286;10.434;2023-04-03T09:33:50;2.10;;;0.80;;
73557;SDS011;61829;53.286;10.434;2023-04-03T09:39:15;2.20;;;0.98;;
73557;SDS011;61829;53.286;10.434;2023-04-03T09:47:28;4.20;;;1.00;;
73557;SDS011;61829;53.286;10.434;2023-04-03T09:53:07;1.00;;;0.68;;
73557;SDS011;61829;53.286;10.434;2023-04-03T09:55:50;1.40;;;0.55;;
73557;SDS011;61829;53.286;10.434;2023-04-03T09:58:25;1.50;;;0.63;;
73557;SDS011;61829;53.286;10.434;2023-04-03T10:00:57;3.47;;;0.95;;
73557;SDS011;61829;53.286;10.434;2023-04-03T10:03:43;2.13;;;0.88;;
73557;SDS011;61829;53.286;10.434;2023-04-03T10:06:23;2.17;;;0.60;;
73557;SDS011;61829;53.286;10.434;2023-04-03T10:08:58;1.58;;;0.80;;
73557;SDS011;61829;53.286;10.434;2023-04-03T10:11:26;2.20;;;0.60;;
73557;SDS011;61829;53.286;10.434;2023-04-03T10:14:01;2.85;;;0.82;;
73557;SDS011;61829;53.286;10.434;2023-04-03T10:20:47;1.35;;;0.82;;
73557;SDS011;61829;53.286;10.434;2023-04-03T10:23:24;1.95;;;0.88;;
73557;SDS011;61829;53.286;10.434;2023-04-03T10:31:27;2.55;;;0.90;;
73557;SDS011;61829;53.286;10.434;2023-04-03T10:37:04;3.38;;;1.10;;
73557;SDS011;61829;53.286;10.434;2023-04-03T10:39:43;3.78;;;1.17;;
73557;SDS011;61829;53.286;10.434;2023-04-03T10:47:50;2.70;;;0.82;;
73557;SDS011;61829;53.286;10.434;2023-04-03T10:53:03;2.60;;;1.05;;
73557;SDS011;61829;53.286;10.434;2023-04-03T10:58:32;2.17;;;0.80;;
73557;SDS011;61829;53.286;10.434;2023-04-03T11:01:38;1.58;;;0.80;;
73557;SDS011;61829;53.286;10.434;2023-04-03T11:04:03;1.40;;;0.80;;
73557;SDS011;61829;53.286;10.434;2023-04-03T11:06:41;3.33;;;0.90;;
73557;SDS011;61829;53.286;10.434;2023-04-03T11:09:21;5.00;;;1.60;;
73557;SDS011;61829;53.286;10.434;2023-04-03T11:11:48;2.85;;;1.20;;
73557;SDS011;61829;53.286;10.434;2023-04-03T11:19:56;1.55;;;0.80;;
73557;SDS011;61829;53.286;10.434;2023-04-03T11:22:27;2.33;;;0.80;;
73557;SDS011;61829;53.286;10.434;2023-04-03T11:25:04;2.95;;;0.88;;
73557;SDS011;61829;53.286;10.434;2023-04-03T11:35:44;2.88;;;1.10;;
73557;SDS011;61829;53.286;10.434;2023-04-03T11:38:15;0.90;;;0.50;;
73557;SDS011;61829;53.286;10.434;2023-04-03T11:40:47;2.95;;;0.73;;
73557;SDS011;61829;53.286;10.434;2023-04-03T11:43:20;4.30;;;1.00;;
73557;SDS011;61829;53.286;10.434;2023-04-03T11:48:41;1.83;;;0.90;;
73557;SDS011;61829;53.286;10.434;2023-04-03T11:53:41;3.92;;;1.23;;
73557;SDS011;61829;53.286;10.434;2023-04-03T11:56:27;1.17;;;0.80;;
73557;SDS011;61829;53.286;10.434;2023-04-03T12:01:55;1.42;;;0.77;;
73557;SDS011;61829;53.286;10.434;2023-04-03T12:04:24;4.30;;;1.25;;
73557;SDS011;61829;53.286;10.434;2023-04-03T12:21:14;1.83;;;0.75;;
73557;SDS011;61829;53.286;10.434;2023-04-03T12:31:55;2.63;;;0.70;;
73557;SDS011;61829;53.286;10.434;2023-04-03T12:37:21;10.27;;;3.33;;
73557;SDS011;61829;53.286;10.434;2023-04-03T12:47:45;1.50;;;0.90;;
73557;SDS011;61829;53.286;10.434;2023-04-03T12:55:30;1.90;;;0.77;;
73557;SDS011;61829;53.286;10.434;2023-04-03T12:57:56;4.28;;;1.00;;
73557;SDS011;61829;53.286;10.434;2023-04-03T13:00:29;2.50;;;0.80;;
73557;SDS011;61829;53.286;10.434;2023-04-03T13:02:59;1.90;;;0.90;;
73557;SDS011;61829;53.286;10.434;2023-04-03T13:05:27;2.40;;;0.85;;
73557;SDS011;61829;53.286;10.434;2023-04-03T13:08:00;1.65;;;0.73;;
73557;SDS011;61829;53.286;10.434;2023-04-03T13:10:28;2.63;;;1.00;;
73557;SDS011;61829;53.286;10.434;2023-04-03T13:12:56;1.80;;;0.93;;
73557;SDS011;61829;53.286;10.434;2023-04-03T13:15:26;1.80;;;0.85;;
73557;SDS011;61829;53.286;10.434;2023-04-03T13:17:55;1.00;;;0.70;;
73557;SDS011;61829;53.286;10.434;2023-04-03T13:22:52;1.67;;;0.60;;
73557;SDS011;61829;53.286;10.434;2023-04-03T13:25:27;2.70;;;0.75;;
73557;SDS011;61829;53.286;10.434;2023-04-03T13:27:56;1.83;;;0.73;;
73557;SDS011;61829;53.286;10.434;2023-04-03T13:30:26;0.90;;;0.68;;
73557;SDS011;61829;53.286;10.434;2023-04-03T13:32:58;1.83;;;0.60;;
73557;SDS011;61829;53.286;10.434;2023-04-03T13:37:57;2.67;;;0.80;;
73557;SDS011;61829;53.286;10.434;2023-04-03T13:40:25;1.98;;;0.82;;
73557;SDS011;61829;53.286;10.434;2023-04-03T13:43:01;2.10;;;1.00;;
73557;SDS011;61829;53.286;10.434;2023-04-03T13:45:31;4.30;;;1.45;;
73557;SDS011;61829;53.286;10.434;2023-04-03T13:48:09;2.42;;;1.02;;
73557;SDS011;61829;53.286;10.434;2023-04-03T13:53:52;2.45;;;0.73;;
73557;SDS011;61829;53.286;10.434;2023-04-03T13:56:32;2.55;;;0.88;;
73557;SDS011;61829;53.286;10.434;2023-04-03T14:06:53;2.42;;;0.80;;
73557;SDS011;61829;53.286;10.434;2023-04-03T14:09:20;1.25;;;0.60;;
73557;SDS011;61829;53.286;10.434;2023-04-03T14:15:05;1.95;;;0.85;;
73557;SDS011;61829;53.286;10.434;2023-04-03T14:17:41;1.00;;;0.70;;
73557;SDS011;61829;53.286;10.434;2023-04-03T14:20:10;0.98;;;0.50;;
73557;SDS011;61829;53.286;10.434;2023-04-03T14:22:41;0.68;;;0.55;;
73557;SDS011;61829;53.286;10.434;2023-04-03T14:25:07;1.50;;;0.88;;
73557;SDS011;61829;53.286;10.434;2023-04-03T14:27:34;2.88;;;0.80;;
73557;SDS011;61829;53.286;10.434;2023-04-03T14:30:05;2.78;;;0.90;;
73557;SDS011;61829;53.286;10.434;2023-04-03T14:32:35;0.70;;;0.68;;
73557;SDS011;61829;53.286;10.434;2023-04-03T14:35:01;0.77;;;0.55;;
73557;SDS011;61829;53.286;10.434;2023-04-03T14:37:28;2.53;;;0.60;;
73557;SDS011;61829;53.286;10.434;2023-04-03T14:39:56;2.90;;;0.93;;
73557;SDS011;61829;53.286;10.434;2023-04-03T14:42:35;3.95;;;1.05;;
73557;SDS011;61829;53.286;10.434;2023-04-03T14:45:07;1.27;;;0.57;;
73557;SDS011;61829;53.286;10.434;2023-04-03T14:47:36;1.48;;;0.68;;
73557;SDS011;61829;53.286;10.434;2023-04-03T14:50:07;1.45;;;0.77;;
73557;SDS011;61829;53.286;10.434;2023-04-03T14:52:38;1.23;;;0.60;;
73557;SDS011;61829;53.286;10.434;2023-04-03T14:55:05;2.78;;;0.88;;
73557;SDS011;61829;53.286;10.434;2023-04-03T14:57:31;0.88;;;0.60;;
73557;SDS011;61829;53.286;10.434;2023-04-03T14:59:57;2.70;;;0.77;;
73557;SDS011;61829;53.286;10.434;2023-04-03T15:04:55;1.40;;;0.70;;
73557;SDS011;61829;53.286;10.434;2023-04-03T15:09:49;0.57;;;0.40;;
73557;SDS011;61829;53.286;10.434;2023-04-03T15:12:16;1.08;;;0.63;;
73557;SDS011;61829;53.286;10.434;2023-04-03T15:14:42;1.42;;;0.50;;
73557;SDS011;61829;53.286;10.434;2023-04-03T15:17:16;0.93;;;0.68;;
73557;SDS011;61829;53.286;10.434;2023-04-03T15:19:45;2.25;;;0.80;;
73557;SDS011;61829;53.286;10.434;2023-04-03T15:22:16;2.10;;;0.93;;
73557;SDS011;61829;53.286;10.434;2023-04-03T15:24:45;1.02;;;0.57;;
73557;SDS011;61829;53.286;10.434;2023-04-03T15:27:13;2.50;;;0.75;;
73557;SDS011;61829;53.286;10.434;2023-04-03T15:29:41;2.22;;;0.90;;
73557;SDS011;61829;53.286;10.434;2023-04-03T15:32:07;1.17;;;0.77;;
73557;SDS011;61829;53.286;10.434;2023-04-03T15:34:34;1.75;;;0.85;;
73557;SDS011;61829;53.286;10.434;2023-04-03T15:37:00;1.40;;;1.02;;
73557;SDS011;61829;53.286;10.434;2023-04-03T15:39:26;1.33;;;0.80;;
73557;SDS011;61829;53.286;10.434;2023-04-03T15:41:53;1.25;;;0.45;;
73557;SDS011;61829;53.286;10.434;2023-04-03T15:44:20;3.55;;;1.00;;
73557;SDS011;61829;53.286;10.434;2023-04-03T15:46:47;1.33;;;0.55;;
73557;SDS011;61829;53.286;10.434;2023-04-03T15:49:14;2.38;;;0.70;;
73557;SDS011;61829;53.286;10.434;2023-04-03T15:51:41;0.40;;;0.40;;
73557;SDS011;61829;53.286;10.434;2023-04-03T15:54:07;1.75;;;0.90;;
73557;SDS011;61829;53.286;10.434;2023-04-03T15:56:36;2.50;;;1.00;;
73557;SDS011;61829;53.286;10.434;2023-04-03T15:59:01;1.58;;;0.80;;
73557;SDS011;61829;53.286;10.434;2023-04-03T16:01:28;3.80;;;0.90;;
73557;SDS011;61829;53.286;10.434;2023-04-03T16:03:53;2.72;;;0.80;;
73557;SDS011;61829;53.286;10.434;2023-04-03T16:06:32;3.22;;;1.05;;
73557;SDS011;61829;53.286;10.434;2023-04-03T16:08:59;1.80;;;0.60;;
73557;SDS011;61829;53.286;10.434;2023-04-03T16:11:26;2.03;;;1.00;;
73557;SDS011;61829;53.286;10.434;2023-04-03T16:13:53;1.48;;;0.70;;
73557;SDS011;61829;53.286;10.434;2023-04-03T16:16:20;1.13;;;0.90;;
73557;SDS011;61829;53.286;10.434;2023-04-03T16:18:47;2.38;;;0.70;;
73557;SDS011;61829;53.286;10.434;2023-04-03T16:21:16;3.67;;;1.15;;
73557;SDS011;61829;53.286;10.434;2023-04-03T16:23:43;3.53;;;1.38;;
73557;SDS011;61829;53.286;10.434;2023-04-03T16:26:12;4.20;;;1.10;;
73557;SDS011;61829;53.286;10.434;2023-04-03T16:28:38;1.52;;;0.82;;
73557;SDS011;61829;53.286;10.434;2023-04-03T16:31:07;2.28;;;0.65;;
73557;SDS011;61829;53.286;10.434;2023-04-03T16:33:34;2.00;;;0.77;;
73557;SDS011;61829;53.286;10.434;2023-04-03T16:38:27;2.67;;;0.85;;
73557;SDS011;61829;53.286;10.434;2023-04-03T16:40:53;7.50;;;1.80;;
73557;SDS011;61829;53.286;10.434;2023-04-03T16:43:22;2.47;;;0.90;;
73557;SDS011;61829;53.286;10.434;2023-04-03T16:45:54;1.83;;;1.15;;
73557;SDS011;61829;53.286;10.434;2023-04-03T16:48:20;0.77;;;0.55;;
73557;SDS011;61829;53.286;10.434;2023-04-03T16:53:14;3.10;;;0.98;;
73557;SDS011;61829;53.286;10.434;2023-04-03T16:55:41;2.00;;;0.85;;
73557;SDS011;61829;53.286;10.434;2023-04-03T16:58:06;2.42;;;0.90;;
73557;SDS011;61829;53.286;10.434;2023-04-03T17:00:32;1.58;;;0.85;;
73557;SDS011;61829;53.286;10.434;2023-04-03T17:02:59;2.45;;;0.90;;
73557;SDS011;61829;53.286;10.434;2023-04-03T17:05:26;2.05;;;0.70;;
73557;SDS011;61829;53.286;10.434;2023-04-03T17:07:51;5.75;;;1.35;;
73557;SDS011;61829;53.286;10.434;2023-04-03T17:10:17;3.72;;;1.00;;